createdAt,value
2023-01-21T00:00:01.660Z,1.7
2023-01-21T00:01:01.675Z,1.7
2023-01-21T00:02:01.684Z,1.7
2023-01-21T00:03:01.688Z,1.6
2023-01-21T00:04:01.678Z,1.6
2023-01-21T00:05:01.654Z,1.6
2023-01-21T00:06:01.668Z,1.6
2023-01-21T00:07:01.653Z,1.6
2023-01-21T00:08:02.770Z,1.6
2023-01-21T00:09:01.656Z,1.6
2023-01-21T00:10:01.709Z,1.6
2023-01-21T00:11:01.662Z,1.6
2023-01-21T00:12:01.782Z,1.6
2023-01-21T00:13:01.689Z,1.6
2023-01-21T00:14:01.694Z,1.6
2023-01-21T00:15:01.684Z,1.6
2023-01-21T00:16:01.740Z,1.6
2023-01-21T00:17:01.659Z,1.6
2023-01-21T00:18:01.682Z,1.6
2023-01-21T00:19:01.677Z,1.6
2023-01-21T00:20:01.664Z,1.6
2023-01-21T00:21:01.669Z,1.6
2023-01-21T00:22:01.807Z,1.6
2023-01-21T00:23:01.694Z,1.6
2023-01-21T00:24:01.675Z,1.6
2023-01-21T00:25:01.660Z,1.6
2023-01-21T00:26:01.703Z,1.6
2023-01-21T00:27:01.651Z,1.6
2023-01-21T00:28:01.679Z,1.6
2023-01-21T00:29:01.663Z,1.6
2023-01-21T00:30:01.652Z,1.6
2023-01-21T00:31:01.759Z,1.6
2023-01-21T00:32:01.666Z,1.6
2023-01-21T00:33:01.676Z,1.5
2023-01-21T00:34:01.662Z,1.6
2023-01-21T00:35:01.711Z,1.6
2023-01-21T00:36:01.813Z,1.5
2023-01-21T00:37:01.647Z,1.5
2023-01-21T00:38:01.684Z,1.5
2023-01-21T00:39:01.638Z,1.5
2023-01-21T00:40:01.676Z,1.5
2023-01-21T00:41:01.678Z,1.5
2023-01-21T00:42:01.665Z,1.5
2023-01-21T00:43:01.657Z,1.5
2023-01-21T00:44:01.642Z,1.5
2023-01-21T00:45:01.664Z,1.5
2023-01-21T00:46:01.767Z,1.5
2023-01-21T00:47:01.655Z,1.5
2023-01-21T00:48:01.685Z,1.4
2023-01-21T00:49:01.685Z,1.5
2023-01-21T00:50:01.660Z,1.4
2023-01-21T00:51:01.745Z,1.5
2023-01-21T00:52:01.651Z,1.4
2023-01-21T00:53:01.685Z,1.4
2023-01-21T00:54:01.662Z,1.4
2023-01-21T00:55:01.691Z,1.4
2023-01-21T00:56:01.640Z,1.4
2023-01-21T00:57:01.651Z,1.4
2023-01-21T00:58:01.645Z,1.4
2023-01-21T00:59:01.646Z,1.4
2023-01-21T01:00:01.679Z,1.4
2023-01-21T01:01:01.683Z,1.4
2023-01-21T01:02:01.680Z,1.3
2023-01-21T01:03:01.693Z,1.3
2023-01-21T01:04:01.657Z,1.4
2023-01-21T01:05:01.659Z,1.3
2023-01-21T01:06:01.666Z,1.4
2023-01-21T01:07:01.646Z,1.3
2023-01-21T01:08:01.651Z,1.3
2023-01-21T01:09:01.660Z,1.4
2023-01-21T01:10:01.653Z,1.4
2023-01-21T01:11:01.638Z,1.4
2023-01-21T01:12:01.637Z,1.4
2023-01-21T01:13:01.651Z,1.4
2023-01-21T01:14:01.648Z,1.4
2023-01-21T01:15:01.645Z,1.3
2023-01-21T01:16:01.749Z,1.3
2023-01-21T01:17:01.650Z,1.3
2023-01-21T01:18:01.650Z,1.3
2023-01-21T01:19:01.715Z,1.3
2023-01-21T01:20:01.704Z,1.3
2023-01-21T01:21:01.701Z,1.3
2023-01-21T01:22:01.644Z,1.3
2023-01-21T01:23:01.643Z,1.3
2023-01-21T01:24:01.683Z,1.4
2023-01-21T01:25:01.656Z,1.4
2023-01-21T01:26:01.638Z,1.4
2023-01-21T01:27:01.649Z,1.3
2023-01-21T01:28:01.647Z,1.4
2023-01-21T01:29:01.640Z,1.4
2023-01-21T01:30:01.653Z,1.3
2023-01-21T01:31:01.848Z,1.3
2023-01-21T01:32:01.656Z,1.3
2023-01-21T01:34:01.634Z,1.2
2023-01-21T01:35:01.629Z,1.2
2023-01-21T01:36:01.694Z,1.2
2023-01-21T01:37:01.652Z,1.2
2023-01-21T01:38:01.641Z,1.2
2023-01-21T01:39:01.633Z,1.1
2023-01-21T01:40:01.676Z,1.1
2023-01-21T01:41:01.650Z,1.1
2023-01-21T01:42:01.642Z,1.1
2023-01-21T01:43:01.637Z,1.1
2023-01-21T01:44:01.655Z,1.1
2023-01-21T01:45:01.747Z,1.2
2023-01-21T01:46:01.698Z,1.1
2023-01-21T01:47:01.654Z,1.1
2023-01-21T01:48:01.671Z,1.1
2023-01-21T01:49:01.683Z,1.1
2023-01-21T01:50:01.655Z,1.1
2023-01-21T01:51:01.690Z,1.1
2023-01-21T01:52:01.643Z,1
2023-01-21T01:53:01.691Z,1.1
2023-01-21T01:54:01.638Z,1
2023-01-21T01:55:01.780Z,1.1
2023-01-21T01:56:01.643Z,1
2023-01-21T01:57:01.630Z,1
2023-01-21T01:58:01.634Z,1
2023-01-21T01:59:01.641Z,1.2
2023-01-21T02:00:01.656Z,1.2
2023-01-21T02:01:01.645Z,1.2
2023-01-21T02:02:01.686Z,1.2
2023-01-21T02:03:01.652Z,1.2
2023-01-21T02:04:01.647Z,1.2
2023-01-21T02:05:01.638Z,1.2
2023-01-21T02:06:01.630Z,1.3
2023-01-21T02:07:01.655Z,1.3
2023-01-21T02:08:01.640Z,1.3
2023-01-21T02:09:01.661Z,1.3
2023-01-21T02:10:01.618Z,1.3
2023-01-21T02:11:01.626Z,1.3
2023-01-21T02:12:01.660Z,1.3
2023-01-21T02:13:01.645Z,1.2
2023-01-21T02:14:01.631Z,1.2
2023-01-21T02:15:01.635Z,1.2
2023-01-21T02:16:01.714Z,1.1
2023-01-21T02:17:01.633Z,1.2
2023-01-21T02:18:01.632Z,1.2
2023-01-21T02:19:01.636Z,1.2
2023-01-21T02:20:01.638Z,1.1
2023-01-21T02:21:01.634Z,1.2
2023-01-21T02:22:01.640Z,1.2
2023-01-21T02:23:01.636Z,1.1
2023-01-21T02:24:01.629Z,1.1
2023-01-21T02:25:01.640Z,1.1
2023-01-21T02:26:01.659Z,1.1
2023-01-21T02:27:01.619Z,1.1
2023-01-21T02:28:01.635Z,1.1
2023-01-21T02:29:01.637Z,1.2
2023-01-21T02:30:01.658Z,1.2
2023-01-21T02:31:01.778Z,1.1
2023-01-21T02:32:01.636Z,1.1
2023-01-21T02:33:01.627Z,1.1
2023-01-21T02:34:01.731Z,1.1
2023-01-21T02:35:01.638Z,1.1
2023-01-21T02:36:01.665Z,1.1
2023-01-21T02:37:01.625Z,1.1
2023-01-21T02:38:01.642Z,1.1
2023-01-21T02:39:01.720Z,1.1
2023-01-21T02:40:01.645Z,1.1
2023-01-21T02:41:01.652Z,1.1
2023-01-21T02:42:01.653Z,1.1
2023-01-21T02:43:01.610Z,1.1
2023-01-21T02:44:01.627Z,1.1
2023-01-21T02:45:01.630Z,1
2023-01-21T02:46:01.632Z,1
2023-01-21T02:47:01.610Z,1.1
2023-01-21T02:48:01.662Z,1.1
2023-01-21T02:49:01.628Z,1
2023-01-21T02:50:01.650Z,1
2023-01-21T02:51:01.650Z,1
2023-01-21T02:52:01.648Z,1
2023-01-21T02:53:01.660Z,1
2023-01-21T02:54:01.617Z,1
2023-01-21T02:55:01.802Z,1
2023-01-21T02:56:01.618Z,1
2023-01-21T02:57:01.653Z,1
2023-01-21T02:58:01.646Z,1.1
2023-01-21T02:59:01.633Z,1
2023-01-21T03:00:01.610Z,1
2023-01-21T03:01:01.773Z,1.1
2023-01-21T03:02:01.652Z,1.1
2023-01-21T03:03:01.767Z,1.2
2023-01-21T03:04:01.636Z,1.1
2023-01-21T03:05:01.630Z,1.2
2023-01-21T03:06:01.652Z,1.2
2023-01-21T03:07:01.608Z,1.2
2023-01-21T03:08:01.645Z,1.2
2023-01-21T03:09:01.625Z,1.3
2023-01-21T03:10:01.613Z,1.3
2023-01-21T03:11:01.634Z,1.3
2023-01-21T03:12:01.617Z,1.2
2023-01-21T03:13:01.631Z,1.3
2023-01-21T03:14:01.634Z,1.3
2023-01-21T03:15:01.636Z,1.3
2023-01-21T03:16:01.755Z,1.3
2023-01-21T03:17:01.628Z,1.3
2023-01-21T03:18:01.865Z,1.2
2023-01-21T03:19:01.625Z,1.2
2023-01-21T03:20:01.625Z,1.3
2023-01-21T03:21:01.625Z,1.3
2023-01-21T03:22:01.617Z,1.3
2023-01-21T03:23:01.632Z,1.3
2023-01-21T03:24:01.615Z,1.3
2023-01-21T03:25:01.631Z,1.3
2023-01-21T03:26:01.636Z,1.3
2023-01-21T03:27:01.620Z,1.3
2023-01-21T03:28:01.635Z,1.3
2023-01-21T03:29:01.619Z,1.3
2023-01-21T03:30:01.684Z,1.3
2023-01-21T03:31:01.708Z,1.3
2023-01-21T03:32:01.621Z,1.2
2023-01-21T03:33:01.606Z,1.2
2023-01-21T03:34:01.620Z,1.2
2023-01-21T03:35:01.623Z,1.2
2023-01-21T03:36:01.618Z,1.2
2023-01-21T03:37:01.626Z,1.2
2023-01-21T03:38:01.619Z,1.2
2023-01-21T03:39:01.630Z,1.2
2023-01-21T03:40:01.598Z,1.2
2023-01-21T03:41:01.627Z,1.2
2023-01-21T03:42:01.621Z,1.2
2023-01-21T03:43:01.623Z,1.2
2023-01-21T03:44:01.614Z,1.2
2023-01-21T03:45:01.616Z,1.2
2023-01-21T03:46:01.692Z,1.2
2023-01-21T03:47:01.628Z,1.2
2023-01-21T03:48:01.635Z,1.2
2023-01-21T03:49:01.634Z,1.2
2023-01-21T03:50:01.617Z,1.3
2023-01-21T03:51:01.633Z,1.2
2023-01-21T03:52:01.607Z,1.3
2023-01-21T03:53:01.608Z,1.3
2023-01-21T03:54:01.616Z,1.3
2023-01-21T03:55:01.633Z,1.3
2023-01-21T03:56:01.616Z,1.3
2023-01-21T03:57:01.621Z,1.3
2023-01-21T03:58:01.607Z,1.3
2023-01-21T03:59:01.642Z,1.3
2023-01-21T04:00:01.642Z,1.3
2023-01-21T04:01:01.769Z,1.3
2023-01-21T04:02:01.647Z,1.3
2023-01-21T04:03:01.631Z,1.3
2023-01-21T04:04:01.616Z,1.3
2023-01-21T04:05:01.645Z,1.3
2023-01-21T04:06:01.618Z,1.3
2023-01-21T04:07:01.616Z,1.3
2023-01-21T04:08:01.618Z,1.4
2023-01-21T04:09:01.614Z,1.3
2023-01-21T04:10:01.640Z,1.4
2023-01-21T04:11:01.609Z,1.4
2023-01-21T04:12:01.620Z,1.4
2023-01-21T04:13:02.182Z,1.4
2023-01-21T04:14:01.606Z,1.3
2023-01-21T04:15:04.145Z,1.3
2023-01-21T04:16:01.651Z,1.3
2023-01-21T04:17:01.589Z,1.3
2023-01-21T04:18:01.609Z,1.4
2023-01-21T04:19:01.615Z,1.4
2023-01-21T04:20:01.623Z,1.4
2023-01-21T04:21:01.602Z,1.4
2023-01-21T04:22:01.588Z,1.4
2023-01-21T04:23:01.613Z,1.4
2023-01-21T04:24:01.606Z,1.4
2023-01-21T04:25:01.629Z,1.4
2023-01-21T04:26:01.604Z,1.4
2023-01-21T04:27:01.592Z,1.5
2023-01-21T04:28:01.633Z,1.4
2023-01-21T04:29:01.628Z,1.4
2023-01-21T04:30:01.637Z,1.4
2023-01-21T04:31:01.696Z,1.4
2023-01-21T04:32:01.717Z,1.4
2023-01-21T04:33:01.603Z,1.4
2023-01-21T04:34:01.624Z,1.4
2023-01-21T04:35:01.622Z,1.3
2023-01-21T04:36:01.621Z,1.3
2023-01-21T04:37:01.619Z,1.3
2023-01-21T04:38:01.604Z,1.3
2023-01-21T04:39:01.614Z,1.4
2023-01-21T04:40:01.616Z,1.4
2023-01-21T04:41:01.609Z,1.3
2023-01-21T04:42:01.602Z,1.3
2023-01-21T04:43:01.619Z,1.3
2023-01-21T04:44:01.592Z,1.2
2023-01-21T04:45:01.653Z,1.2
2023-01-21T04:46:01.699Z,1.2
2023-01-21T04:47:01.588Z,1.2
2023-01-21T04:48:01.609Z,1.2
2023-01-21T04:49:01.581Z,1.2
2023-01-21T04:50:01.651Z,1.1
2023-01-21T04:51:01.637Z,1.1
2023-01-21T04:52:01.611Z,1.1
2023-01-21T04:53:01.588Z,1
2023-01-21T04:54:01.615Z,1
2023-01-21T04:55:01.623Z,1
2023-01-21T04:56:01.618Z,1
2023-01-21T04:57:01.620Z,1
2023-01-21T04:58:01.630Z,0.9
2023-01-21T04:59:01.604Z,1
2023-01-21T05:00:01.620Z,1
2023-01-21T05:02:01.633Z,1
2023-01-21T05:03:01.594Z,1
2023-01-21T05:04:01.595Z,1
2023-01-21T05:05:01.624Z,1
2023-01-21T05:06:01.587Z,1
2023-01-21T05:07:01.594Z,1
2023-01-21T05:08:01.601Z,1
2023-01-21T05:09:01.604Z,1
2023-01-21T05:10:01.609Z,1
2023-01-21T05:11:01.608Z,1
2023-01-21T05:12:01.576Z,1
2023-01-21T05:13:08.152Z,1
2023-01-21T05:14:01.594Z,1
2023-01-21T05:15:01.606Z,1
2023-01-21T05:16:01.681Z,1
2023-01-21T05:17:01.695Z,1
2023-01-21T05:18:01.596Z,1
2023-01-21T05:19:01.590Z,1
2023-01-21T05:20:01.603Z,1
2023-01-21T05:21:01.616Z,1
2023-01-21T05:22:01.592Z,1.1
2023-01-21T05:23:01.591Z,1
2023-01-21T05:24:01.579Z,1.1
2023-01-21T05:25:01.614Z,1.1
2023-01-21T05:26:01.599Z,1.1
2023-01-21T05:27:01.598Z,1.1
2023-01-21T05:29:01.600Z,1.1
2023-01-21T05:30:01.629Z,1
2023-01-21T05:31:01.852Z,1
2023-01-21T05:32:01.599Z,1
2023-01-21T05:33:01.594Z,1
2023-01-21T05:34:01.608Z,1
2023-01-21T05:36:01.607Z,1
2023-01-21T05:37:11.891Z,1
2023-01-21T05:38:11.867Z,1
2023-01-21T05:39:11.876Z,1
2023-01-21T05:40:01.692Z,1
2023-01-21T05:41:01.601Z,1
2023-01-21T05:42:01.584Z,1
2023-01-21T05:43:01.619Z,1
2023-01-21T05:44:01.585Z,1.1
2023-01-21T05:45:01.666Z,1.1
2023-01-21T05:46:01.645Z,1.1
2023-01-21T05:47:01.599Z,1.1
2023-01-21T05:48:01.610Z,1.1
2023-01-21T05:49:01.598Z,1.1
2023-01-21T05:50:01.607Z,1.1
2023-01-21T05:51:01.679Z,1.1
2023-01-21T05:52:01.585Z,1.1
2023-01-21T05:53:01.592Z,1.2
2023-01-21T05:54:01.586Z,1.2
2023-01-21T05:55:02.794Z,1.2
2023-01-21T05:56:01.578Z,1.2
2023-01-21T05:57:01.583Z,1.2
2023-01-21T05:58:01.587Z,1.1
2023-01-21T05:59:01.655Z,1.1
2023-01-21T06:00:01.588Z,1.1
2023-01-21T06:01:01.579Z,1.1
2023-01-21T06:02:01.639Z,1.1
2023-01-21T06:03:01.602Z,1.1
2023-01-21T06:04:01.586Z,1.1
2023-01-21T06:05:01.598Z,1.1
2023-01-21T06:06:01.599Z,1.1
2023-01-21T06:07:01.604Z,1.2
2023-01-21T06:08:01.619Z,1.2
2023-01-21T06:09:01.577Z,1.2
2023-01-21T06:10:01.846Z,1.2
2023-01-21T06:11:01.584Z,1.2
2023-01-21T06:12:01.559Z,1.1
2023-01-21T06:12:55.635Z,1.1
2023-01-21T06:14:01.586Z,1.1
2023-01-21T06:15:01.594Z,1.2
2023-01-21T06:16:01.638Z,1.2
2023-01-21T06:17:01.595Z,1.1
2023-01-21T06:18:01.581Z,1.1
2023-01-21T06:19:01.634Z,1.1
2023-01-21T06:20:01.616Z,1
2023-01-21T06:21:01.570Z,1
2023-01-21T06:22:01.609Z,1
2023-01-21T06:23:01.579Z,1
2023-01-21T06:24:01.570Z,1
2023-01-21T06:25:01.611Z,1
2023-01-21T06:26:01.624Z,1
2023-01-21T06:27:01.594Z,1
2023-01-21T06:28:01.575Z,1
2023-01-21T06:29:01.589Z,1
2023-01-21T06:30:01.588Z,1
2023-01-21T06:31:01.771Z,1
2023-01-21T06:32:01.753Z,1
2023-01-21T06:33:01.591Z,1.1
2023-01-21T06:34:01.563Z,1.1
2023-01-21T06:35:01.570Z,1.1
2023-01-21T06:36:01.571Z,1.1
2023-01-21T06:37:01.613Z,1.1
2023-01-21T06:38:01.603Z,1.1
2023-01-21T06:39:01.578Z,1.1
2023-01-21T06:40:01.590Z,1.1
2023-01-21T06:41:01.566Z,1.1
2023-01-21T06:42:01.581Z,1.1
2023-01-21T06:43:01.553Z,1
2023-01-21T06:44:01.569Z,1.1
2023-01-21T06:45:01.585Z,1.1
2023-01-21T06:46:01.674Z,1.1
2023-01-21T06:47:02.085Z,1.1
2023-01-21T06:48:01.581Z,1.1
2023-01-21T06:49:01.575Z,1.1
2023-01-21T06:50:01.605Z,1.1
2023-01-21T06:52:01.593Z,1.1
2023-01-21T06:53:01.568Z,1.1
2023-01-21T06:54:01.855Z,1
2023-01-21T06:55:01.589Z,1
2023-01-21T06:56:01.590Z,1
2023-01-21T06:57:01.567Z,1
2023-01-21T06:58:01.578Z,1
2023-01-21T06:59:01.548Z,1
2023-01-21T07:00:01.583Z,1
2023-01-21T07:01:01.569Z,1
2023-01-21T07:02:01.569Z,1
2023-01-21T07:03:01.623Z,1
2023-01-21T07:04:01.711Z,1
2023-01-21T07:05:01.613Z,1
2023-01-21T07:06:01.560Z,1
2023-01-21T07:07:01.588Z,1
2023-01-21T07:08:01.554Z,1
2023-01-21T07:09:01.569Z,1
2023-01-21T07:10:01.654Z,1
2023-01-21T07:11:01.558Z,1.1
2023-01-21T07:12:01.592Z,1
2023-01-21T07:13:01.575Z,1.1
2023-01-21T07:14:01.569Z,1
2023-01-21T07:15:01.577Z,1
2023-01-21T07:16:01.709Z,1
2023-01-21T07:17:01.559Z,1
2023-01-21T07:18:01.557Z,1.1
2023-01-21T07:19:01.570Z,1.1
2023-01-21T07:20:01.568Z,1.2
2023-01-21T07:21:01.652Z,1.2
2023-01-21T07:22:01.582Z,1.2
2023-01-21T07:23:01.554Z,1.1
2023-01-21T07:24:01.551Z,1.1
2023-01-21T07:25:01.581Z,1
2023-01-21T07:26:01.588Z,1
2023-01-21T07:27:01.570Z,1
2023-01-21T07:28:01.554Z,1
2023-01-21T07:29:02.026Z,1.1
2023-01-21T07:30:01.582Z,1
2023-01-21T07:31:01.773Z,1
2023-01-21T07:32:01.660Z,1
2023-01-21T07:33:01.558Z,1
2023-01-21T07:34:01.584Z,1
2023-01-21T07:35:01.562Z,1
2023-01-21T07:36:01.577Z,1
2023-01-21T07:37:01.584Z,1
2023-01-21T07:38:01.575Z,1
2023-01-21T07:39:01.572Z,1
2023-01-21T07:40:01.578Z,1
2023-01-21T07:41:01.556Z,1
2023-01-21T07:42:01.543Z,1
2023-01-21T07:43:01.569Z,1
2023-01-21T07:44:01.539Z,1
2023-01-21T07:45:01.591Z,1
2023-01-21T07:46:01.595Z,1
2023-01-21T07:47:01.567Z,1.1
2023-01-21T07:48:01.633Z,1
2023-01-21T07:49:01.577Z,1
2023-01-21T07:50:01.569Z,1
2023-01-21T07:51:01.623Z,1
2023-01-21T07:52:01.579Z,1
2023-01-21T07:53:01.566Z,1
2023-01-21T07:54:01.583Z,1
2023-01-21T07:55:01.669Z,1
2023-01-21T07:56:01.573Z,1
2023-01-21T07:57:01.567Z,1
2023-01-21T07:58:01.568Z,1.1
2023-01-21T07:59:01.581Z,1.1
2023-01-21T08:00:01.603Z,1.1
2023-01-21T08:01:01.574Z,1.1
2023-01-21T08:02:01.735Z,1.1
2023-01-21T08:03:01.569Z,1.1
2023-01-21T08:04:01.593Z,1.1
2023-01-21T08:05:01.574Z,1.1
2023-01-21T08:06:01.572Z,1.1
2023-01-21T08:07:01.562Z,1.1
2023-01-21T08:08:01.558Z,1.1
2023-01-21T08:09:01.564Z,1.1
2023-01-21T08:10:01.575Z,1.1
2023-01-21T08:11:01.588Z,1.1
2023-01-21T08:12:01.589Z,1.1
2023-01-21T08:13:01.559Z,1.1
2023-01-21T08:14:01.567Z,1.1
2023-01-21T08:15:01.584Z,1.1
2023-01-21T08:16:01.622Z,1.1
2023-01-21T08:17:01.604Z,1.1
2023-01-21T08:18:01.581Z,1.1
2023-01-21T08:19:01.584Z,1
2023-01-21T08:20:01.573Z,1
2023-01-21T08:21:01.526Z,1
2023-01-21T08:22:01.603Z,1
2023-01-21T08:23:01.605Z,1
2023-01-21T08:24:01.565Z,1
2023-01-21T08:25:01.574Z,1
2023-01-21T08:26:01.577Z,1
2023-01-21T08:27:01.575Z,1.1
2023-01-21T08:28:01.573Z,1.1
2023-01-21T08:29:01.554Z,1.1
2023-01-21T08:30:01.539Z,1.1
2023-01-21T08:31:01.663Z,1.1
2023-01-21T08:32:01.568Z,1.1
2023-01-21T08:33:01.530Z,1.1
2023-01-21T08:34:01.560Z,1.2
2023-01-21T08:35:01.540Z,1.1
2023-01-21T08:36:01.566Z,1.1
2023-01-21T08:37:01.589Z,1.2
2023-01-21T08:38:01.564Z,1.2
2023-01-21T08:39:01.556Z,1.2
2023-01-21T08:40:01.554Z,1.2
2023-01-21T08:41:01.599Z,1.2
2023-01-21T08:42:01.565Z,1.2
2023-01-21T08:43:01.570Z,1.2
2023-01-21T08:44:01.697Z,1.2
2023-01-21T08:45:01.606Z,1.2
2023-01-21T08:46:01.732Z,1.2
2023-01-21T08:47:01.553Z,1.2
2023-01-21T08:48:01.566Z,1.2
2023-01-21T08:49:01.557Z,1.3
2023-01-21T08:50:39.765Z,1.3
2023-01-21T08:51:01.584Z,1.2
2023-01-21T08:52:01.574Z,1.2
2023-01-21T08:53:01.578Z,1.2
2023-01-21T08:54:01.586Z,1.2
2023-01-21T08:55:01.554Z,1.3
2023-01-21T08:56:01.914Z,1.3
2023-01-21T08:57:01.585Z,1.3
2023-01-21T08:58:01.577Z,1.3
2023-01-21T08:59:01.564Z,1.3
2023-01-21T09:01:37.394Z,1.4
2023-01-21T09:02:26.176Z,1.4
2023-01-21T09:03:52.360Z,1.3
2023-01-21T09:04:42.036Z,1.3
2023-01-21T09:05:01.754Z,1.3
2023-01-21T09:07:01.565Z,1.3
2023-01-21T09:09:22.138Z,1.4
2023-01-21T09:10:01.553Z,1.5
2023-01-21T09:11:22.173Z,1.5
2023-01-21T09:12:11.877Z,1.5
2023-01-21T09:13:11.822Z,1.5
2023-01-21T09:14:32.388Z,1.5
2023-01-21T09:15:23.816Z,1.5
2023-01-21T09:16:15.299Z,1.5
2023-01-21T09:17:11.841Z,1.6
2023-01-21T09:18:11.815Z,1.5
2023-01-21T09:19:11.828Z,1.6
2023-01-21T09:20:01.547Z,1.6
2023-01-21T09:21:01.597Z,1.6
2023-01-21T09:22:01.711Z,1.7
2023-01-21T09:23:01.566Z,1.6
2023-01-21T09:24:01.593Z,1.6
2023-01-21T09:25:01.566Z,1.7
2023-01-21T09:26:01.548Z,1.7
2023-01-21T09:27:01.552Z,1.6
2023-01-21T09:28:01.534Z,1.6
2023-01-21T09:29:15.621Z,1.6
2023-01-21T09:30:01.774Z,1.7
2023-01-21T09:31:01.615Z,1.7
2023-01-21T09:32:01.638Z,1.8
2023-01-21T09:33:01.529Z,1.8
2023-01-21T09:34:01.537Z,1.8
2023-01-21T09:35:01.549Z,1.9
2023-01-21T09:36:01.613Z,1.9
2023-01-21T09:37:01.534Z,1.9
2023-01-21T09:38:01.542Z,2.1
2023-01-21T09:39:01.554Z,2
2023-01-21T09:40:01.592Z,2
2023-01-21T09:41:01.562Z,2
2023-01-21T09:42:01.605Z,2
2023-01-21T09:43:01.550Z,2
2023-01-21T09:44:01.548Z,2
2023-01-21T09:45:01.555Z,1.9
2023-01-21T09:46:03.917Z,2
2023-01-21T09:47:01.536Z,2
2023-01-21T09:48:01.538Z,2
2023-01-21T09:49:01.544Z,2.1
2023-01-21T09:50:01.531Z,2.2
2023-01-21T09:51:01.643Z,2.1
2023-01-21T09:52:01.541Z,2.1
2023-01-21T09:53:01.624Z,2.1
2023-01-21T09:54:01.557Z,2.2
2023-01-21T09:55:01.553Z,2.3
2023-01-21T09:56:01.567Z,2.4
2023-01-21T09:57:01.540Z,2.4
2023-01-21T09:58:01.547Z,2.7
2023-01-21T09:59:01.538Z,2.8
2023-01-21T10:00:01.571Z,2.7
2023-01-21T10:01:01.583Z,2.6
2023-01-21T10:02:01.541Z,2.7
2023-01-21T10:03:01.563Z,2.6
2023-01-21T10:04:01.538Z,2.7
2023-01-21T10:05:01.540Z,2.8
2023-01-21T10:06:01.551Z,2.8
2023-01-21T10:07:01.556Z,2.8
2023-01-21T10:08:01.522Z,2.8
2023-01-21T10:09:01.535Z,3
2023-01-21T10:10:01.538Z,3.1
2023-01-21T10:11:01.615Z,3
2023-01-21T10:12:01.534Z,3.2
2023-01-21T10:13:01.541Z,3.2
2023-01-21T10:14:01.539Z,3.1
2023-01-21T10:15:01.539Z,3
2023-01-21T10:16:01.550Z,2.9
2023-01-21T10:17:01.563Z,2.8
2023-01-21T10:18:01.538Z,2.8
2023-01-21T10:19:01.530Z,2.7
2023-01-21T10:20:01.520Z,2.7
2023-01-21T10:21:01.557Z,2.9
2023-01-21T10:22:01.550Z,2.9
2023-01-21T10:23:01.539Z,2.9
2023-01-21T10:24:01.551Z,3.1
2023-01-21T10:25:01.555Z,3
2023-01-21T10:26:01.543Z,3
2023-01-21T10:27:01.524Z,3
2023-01-21T10:28:01.558Z,2.9
2023-01-21T10:29:01.546Z,2.9
2023-01-21T10:30:01.561Z,2.9
2023-01-21T10:31:01.761Z,2.9
2023-01-21T10:32:01.551Z,2.9
2023-01-21T10:33:01.531Z,2.8
2023-01-21T10:34:01.521Z,2.8
2023-01-21T10:35:01.544Z,2.9
2023-01-21T10:36:01.540Z,2.9
2023-01-21T10:37:01.553Z,2.8
2023-01-21T10:38:01.545Z,2.7
2023-01-21T10:39:01.533Z,2.8
2023-01-21T10:40:01.589Z,2.8
2023-01-21T10:41:01.541Z,2.8
2023-01-21T10:42:01.548Z,3
2023-01-21T10:43:01.549Z,3
2023-01-21T10:44:01.521Z,2.8
2023-01-21T10:45:01.549Z,2.8
2023-01-21T10:46:01.616Z,2.8
2023-01-21T10:47:01.547Z,2.9
2023-01-21T10:48:01.518Z,2.9
2023-01-21T10:49:01.532Z,3
2023-01-21T10:50:01.649Z,3.1
2023-01-21T10:51:01.632Z,3
2023-01-21T10:52:01.642Z,2.9
2023-01-21T10:53:01.625Z,2.9
2023-01-21T10:54:01.544Z,2.9
2023-01-21T10:55:01.549Z,3
2023-01-21T10:56:01.566Z,2.9
2023-01-21T10:57:01.560Z,3
2023-01-21T10:58:01.539Z,2.9
2023-01-21T10:59:01.549Z,2.8
2023-01-21T11:00:01.610Z,2.8
2023-01-21T11:01:01.664Z,2.8
2023-01-21T11:02:01.528Z,2.8
2023-01-21T11:03:01.537Z,2.7
2023-01-21T11:04:01.532Z,2.8
2023-01-21T11:05:01.544Z,2.8
2023-01-21T11:06:01.537Z,2.9
2023-01-21T11:07:01.569Z,2.9
2023-01-21T11:08:01.523Z,3
2023-01-21T11:09:01.607Z,3
2023-01-21T11:10:01.593Z,3
2023-01-21T11:11:01.580Z,3.1
2023-01-21T11:12:01.557Z,3.1
2023-01-21T11:13:01.546Z,3.1
2023-01-21T11:14:01.528Z,2.9
2023-01-21T11:15:01.549Z,3.1
2023-01-21T11:16:01.664Z,3.1
2023-01-21T11:17:01.509Z,3
2023-01-21T11:18:01.532Z,3
2023-01-21T11:19:01.538Z,3.1
2023-01-21T11:20:01.512Z,3
2023-01-21T11:21:01.558Z,3
2023-01-21T11:22:01.531Z,2.9
2023-01-21T11:23:01.532Z,3
2023-01-21T11:24:01.525Z,3.1
2023-01-21T11:25:01.552Z,3.1
2023-01-21T11:26:01.579Z,2.9
2023-01-21T11:27:01.544Z,3.1
2023-01-21T11:28:01.557Z,3
2023-01-21T11:29:01.545Z,2.9
2023-01-21T11:30:01.522Z,2.9
2023-01-21T11:31:01.610Z,2.9
2023-01-21T11:32:01.685Z,2.9
2023-01-21T11:33:01.522Z,3.2
2023-01-21T11:34:01.529Z,3.2
2023-01-21T11:35:01.576Z,3.1
2023-01-21T11:36:01.553Z,3.1
2023-01-21T11:37:01.522Z,3.1
2023-01-21T11:38:01.538Z,3
2023-01-21T11:39:01.517Z,2.9
2023-01-21T11:40:01.513Z,2.9
2023-01-21T11:41:01.556Z,2.9
2023-01-21T11:42:01.532Z,2.9
2023-01-21T11:43:01.527Z,2.8
2023-01-21T11:44:01.535Z,2.9
2023-01-21T11:45:01.538Z,3
2023-01-21T11:46:01.682Z,2.9
2023-01-21T11:47:01.551Z,2.9
2023-01-21T11:48:01.539Z,3
2023-01-21T11:49:01.519Z,3.2
2023-01-21T11:50:01.528Z,3.2
2023-01-21T11:51:01.572Z,3.1
2023-01-21T11:52:01.497Z,3.3
2023-01-21T11:53:02.022Z,3.2
2023-01-21T11:54:01.507Z,3.2
2023-01-21T11:55:01.529Z,3.2
2023-01-21T11:58:01.515Z,3.3
2023-01-21T11:59:11.803Z,3.2
2023-01-21T12:00:11.796Z,3.2
2023-01-21T12:01:11.821Z,3.2
2023-01-21T12:02:01.526Z,3.3
2023-01-21T12:03:01.702Z,3.4
2023-01-21T12:04:01.586Z,3.3
2023-01-21T12:05:01.547Z,3.2
2023-01-21T12:06:01.535Z,3.2
2023-01-21T12:07:01.539Z,3.3
2023-01-21T12:08:01.521Z,3.4
2023-01-21T12:09:01.533Z,3.5
2023-01-21T12:10:01.533Z,3.5
2023-01-21T12:11:01.553Z,3.6
2023-01-21T12:12:01.530Z,3.6
2023-01-21T12:13:01.521Z,3.6
2023-01-21T12:14:01.534Z,3.6
2023-01-21T12:15:01.579Z,3.5
2023-01-21T12:16:01.596Z,3.4
2023-01-21T12:17:01.535Z,3.4
2023-01-21T12:18:01.557Z,3.4
2023-01-21T12:19:01.496Z,3.6
2023-01-21T12:20:01.524Z,3.5
2023-01-21T12:21:01.554Z,3.5
2023-01-21T12:22:01.598Z,3.5
2023-01-21T12:23:01.546Z,3.4
2023-01-21T12:24:01.522Z,3.4
2023-01-21T12:25:01.542Z,3.4
2023-01-21T12:26:01.527Z,3.5
2023-01-21T12:27:01.540Z,3.7
2023-01-21T12:28:01.533Z,3.8
2023-01-21T12:29:01.533Z,3.9
2023-01-21T12:30:01.586Z,3.9
2023-01-21T12:31:01.684Z,3.8
2023-01-21T12:32:01.690Z,3.8
2023-01-21T12:33:01.544Z,3.8
2023-01-21T12:34:02.180Z,3.7
2023-01-21T12:35:01.559Z,3.6
2023-01-21T12:36:01.533Z,3.5
2023-01-21T12:37:01.519Z,3.6
2023-01-21T12:38:01.538Z,3.7
2023-01-21T12:39:01.525Z,3.8
2023-01-21T12:40:01.555Z,3.8
2023-01-21T12:41:01.494Z,3.9
2023-01-21T12:42:01.573Z,3.8
2023-01-21T12:43:01.663Z,3.8
2023-01-21T12:44:01.499Z,3.9
2023-01-21T12:45:01.497Z,3.8
2023-01-21T12:46:01.488Z,3.9
2023-01-21T12:48:01.528Z,3.9
2023-01-21T12:49:02.126Z,3.9
2023-01-21T12:50:01.512Z,3.8
2023-01-21T12:51:01.561Z,3.9
2023-01-21T12:52:01.506Z,4
2023-01-21T12:53:01.512Z,3.9
2023-01-21T12:54:01.504Z,3.9
2023-01-21T12:55:01.542Z,3.9
2023-01-21T12:56:01.495Z,3.9
2023-01-21T12:57:01.509Z,4
2023-01-21T12:58:01.505Z,4
2023-01-21T12:59:01.505Z,4.2
2023-01-21T13:00:01.495Z,4.1
2023-01-21T13:01:01.663Z,4
2023-01-21T13:02:01.581Z,4.1
2023-01-21T13:03:01.534Z,4.1
2023-01-21T13:04:01.495Z,4.1
2023-01-21T13:05:01.484Z,4
2023-01-21T13:06:01.546Z,4.1
2023-01-21T13:07:01.529Z,4.1
2023-01-21T13:08:01.543Z,4.1
2023-01-21T13:09:01.539Z,4
2023-01-21T13:10:01.589Z,4.1
2023-01-21T13:11:01.502Z,4.2
2023-01-21T13:12:01.494Z,4.1
2023-01-21T13:13:01.545Z,4.1
2023-01-21T13:14:01.530Z,4.1
2023-01-21T13:15:01.528Z,4.2
2023-01-21T13:16:01.576Z,4.3
2023-01-21T13:17:01.494Z,4.2
2023-01-21T13:18:01.493Z,4.2
2023-01-21T13:19:01.495Z,4.1
2023-01-21T13:20:01.489Z,4.2
2023-01-21T13:21:01.530Z,4.3
2023-01-21T13:22:01.548Z,4.3
2023-01-21T13:23:01.501Z,4.4
2023-01-21T13:24:01.541Z,4.3
2023-01-21T13:25:01.499Z,4.3
2023-01-21T13:26:01.535Z,4.3
2023-01-21T13:27:01.612Z,4.4
2023-01-21T13:28:01.567Z,4.5
2023-01-21T13:30:01.541Z,4.5
2023-01-21T13:31:01.557Z,4.5
2023-01-21T13:32:01.648Z,4.4
2023-01-21T13:33:01.486Z,4.5
2023-01-21T13:34:08.164Z,4.3
2023-01-21T13:36:01.537Z,4.3
2023-01-21T13:37:01.548Z,4.4
2023-01-21T13:38:11.783Z,4.4
2023-01-21T13:39:11.788Z,4.5
2023-01-21T13:40:11.806Z,4.5
2023-01-21T13:41:01.546Z,4.6
2023-01-21T13:42:01.518Z,4.7
2023-01-21T13:43:01.489Z,4.6
2023-01-21T13:44:01.536Z,4.6
2023-01-21T13:45:01.540Z,4.6
2023-01-21T13:46:01.584Z,4.6
2023-01-21T13:47:01.484Z,4.6
2023-01-21T13:48:01.527Z,4.7
2023-01-21T13:49:01.580Z,4.6
2023-01-21T13:50:01.492Z,4.5
2023-01-21T13:51:01.610Z,4.6
2023-01-21T13:52:01.513Z,4.6
2023-01-21T13:53:01.481Z,4.6
2023-01-21T13:54:01.486Z,4.6
2023-01-21T13:55:01.545Z,4.6
2023-01-21T13:56:01.487Z,4.6
2023-01-21T13:57:01.539Z,4.6
2023-01-21T13:58:02.824Z,4.8
2023-01-21T13:59:01.581Z,4.6
2023-01-21T14:00:01.480Z,4.6
2023-01-21T14:01:01.544Z,4.6
2023-01-21T14:02:01.544Z,4.6
2023-01-21T14:03:01.548Z,4.5
2023-01-21T14:04:03.295Z,4.5
2023-01-21T14:05:01.559Z,4.6
2023-01-21T14:06:01.492Z,4.5
2023-01-21T14:07:01.548Z,4.6
2023-01-21T14:08:01.486Z,4.6
2023-01-21T14:09:01.482Z,4.6
2023-01-21T14:10:01.493Z,4.6